Camiri, Bolivia
Current Conditions -  °F | °C
As of 6:00 AM on Friday 24 Oct 2014 (Local Time) from SLCA Reporting Station
Broken Clouds Broken Clouds  
Wind Chill: 68°   Ceiling: 7000
Heat Index: 68°   Visibility: 6mi
Dew Point: 64°   Wind: 0mph
Humidity: 88%   Direction: NA
Pressure: 30.03"   Gusts: NA
Location:  20.05°S, 63.52°W
Report Text: SLCA 241000Z 00000KT 9999 FEW033 BKN070 BKN200 20/18 Q1017
Loading
Personal Weather Stations






























Interactive Weather Map
Tropical Storm Tracking
New forecast layout! Learn more

10-Day Weather Forecast

Advertisements
Track Severe Weather on mobile